Time;durP1;ratioP1;P1;durP2;ratioP2;P2;SDS_P1;SDS_P2;PMS_P1;PMS_P2;Temp;Humidity;BMP_temperature;BMP_pressure;BME280_temperature;BME280_humidity;BME280_pressure;Samples;Min_cycle;Max_cycle;Signal;HPM_P1;HPM_P2
2021/09/08 00:00:19;;;;;;;;;;;23.80;47.70;;;;;;1563744;75;1929;-57
2021/09/08 00:02:20;;;;;;;;;;;23.80;47.70;;;;;;1567726;75;785;-57
2021/09/08 00:04:22;;;;;;;;;;;23.90;47.70;;;;;;1537541;76;1164;-58
2021/09/08 00:06:25;;;;;;;;;;;23.90;47.70;;;;;;1501377;77;763;-56
2021/09/08 00:08:27;;;;;;;;;;;23.80;47.50;;;;;;1569760;75;765;-57
2021/09/08 00:10:29;;;;;;;;;;;23.80;47.60;;;;;;1571793;75;809;-57
2021/09/08 00:12:31;;;;;;;;;;;23.80;47.50;;;;;;1571130;75;751;-58
2021/09/08 00:14:32;;;;;;;;;;;23.80;47.50;;;;;;1565350;75;1105;-56
2021/09/08 00:16:34;;;;;;;;;;;23.80;47.50;;;;;;1574689;75;683;-57
2021/09/08 00:18:36;;;;;;;;;;;23.80;47.40;;;;;;1577724;75;734;-58
2021/09/08 00:20:38;;;;;;;;;;;23.80;47.40;;;;;;1565750;75;1946;-58
2021/09/08 00:22:40;;;;;;;;;;;23.80;47.40;;;;;;1564477;75;724;-57
2021/09/08 00:24:42;;;;;;;;;;;23.90;47.40;;;;;;1561271;75;1082;-58
2021/09/08 00:26:44;;;;;;;;;;;23.80;47.40;;;;;;1569333;75;733;-56
2021/09/08 00:28:46;;;;;;;;;;;23.80;47.30;;;;;;1572262;75;690;-57
2021/09/08 00:30:47;;;;;;;;;;;23.80;47.30;;;;;;1564525;75;661;-56
2021/09/08 00:32:49;;;;;;;;;;;23.80;47.20;;;;;;1566792;75;710;-57
2021/09/08 00:34:51;;;;;;;;;;;23.80;47.20;;;;;;1567842;75;766;-56
2021/09/08 00:36:53;;;;;;;;;;;23.80;47.30;;;;;;1572033;75;722;-56
2021/09/08 00:38:55;;;;;;;;;;;23.80;47.30;;;;;;1560318;75;648;-58
2021/09/08 00:40:57;;;;;;;;;;;23.70;47.30;;;;;;1568977;75;1931;-56
2021/09/08 00:42:59;;;;;;;;;;;23.80;47.20;;;;;;1551839;75;1154;-55
2021/09/08 00:45:01;;;;;;;;;;;23.80;47.30;;;;;;1576273;75;717;-55
2021/09/08 00:47:03;;;;;;;;;;;23.90;47.30;;;;;;1563809;75;683;-56
2021/09/08 00:49:05;;;;;;;;;;;23.90;46.90;;;;;;1567001;75;704;-56
2021/09/08 00:51:07;;;;;;;;;;;23.80;47.10;;;;;;1563545;75;687;-56
2021/09/08 00:53:08;;;;;;;;;;;23.90;46.90;;;;;;1560488;75;1129;-58
2021/09/08 00:55:11;;;;;;;;;;;23.90;46.90;;;;;;1576742;75;668;-57
2021/09/08 00:57:13;;;;;;;;;;;23.90;46.90;;;;;;1566314;75;756;-57
2021/09/08 00:59:15;;;;;;;;;;;23.80;46.70;;;;;;1567348;75;777;-56
2021/09/08 01:01:18;;;;;;;;;;;23.90;46.80;;;;;;1583531;75;1959;-58
2021/09/08 01:03:20;;;;;;;;;;;23.80;46.80;;;;;;1564234;75;1212;-57
2021/09/08 01:05:24;;;;;;;;;;;23.80;46.80;;;;;;1564494;75;773;-58
2021/09/08 01:07:26;;;;;;;;;;;23.80;46.90;;;;;;1575763;70;221111;-68
2021/09/08 01:09:31;;;;;;;;;;;23.80;46.90;;;;;;1577672;73;764;-68
2021/09/08 01:11:34;;;;;;;;;;;23.80;46.80;;;;;;1554496;74;755;-65
2021/09/08 01:13:36;;;;;;;;;;;23.80;46.90;;;;;;1584075;73;798;-71
2021/09/08 01:15:38;;;;;;;;;;;23.70;46.90;;;;;;1588057;73;768;-66
2021/09/08 01:17:39;;;;;;;;;;;23.80;46.90;;;;;;1581298;74;1202;-68
2021/09/08 01:19:41;;;;;;;;;;;23.80;47.00;;;;;;1564405;74;721;-68
2021/09/08 01:21:43;;;;;;;;;;;23.80;47.10;;;;;;1566791;75;1936;-67
2021/09/08 01:23:45;;;;;;;;;;;23.80;47.10;;;;;;1565464;74;719;-67
2021/09/08 01:25:47;;;;;;;;;;;23.80;47.10;;;;;;1564396;74;795;-67
2021/09/08 01:27:49;;;;;;;;;;;23.80;47.10;;;;;;1566756;75;1097;-69
2021/09/08 01:29:51;;;;;;;;;;;23.80;47.20;;;;;;1568895;74;726;-69
2021/09/08 01:31:54;;;;;;;;;;;23.80;47.20;;;;;;1567330;74;752;-69
2021/09/08 01:33:56;;;;;;;;;;;23.80;47.10;;;;;;1563805;74;787;-68
2021/09/08 01:35:58;;;;;;;;;;;23.70;47.10;;;;;;1559924;74;723;-67
2021/09/08 01:37:59;;;;;;;;;;;23.70;47.10;;;;;;1568130;74;1122;-65
2021/09/08 01:40:01;;;;;;;;;;;23.80;47.00;;;;;;1558110;75;698;-68
2021/09/08 01:42:03;;;;;;;;;;;23.80;47.10;;;;;;1564613;74;1926;-68
2021/09/08 01:44:05;;;;;;;;;;;23.70;47.00;;;;;;1566110;74;838;-68
2021/09/08 01:46:07;;;;;;;;;;;23.70;46.90;;;;;;1560896;75;759;-66
2021/09/08 01:48:09;;;;;;;;;;;23.80;46.80;;;;;;1563517;75;1126;-67
2021/09/08 01:50:11;;;;;;;;;;;23.80;46.80;;;;;;1567896;74;767;-67
2021/09/08 01:52:13;;;;;;;;;;;23.70;46.80;;;;;;1566830;75;760;-71
2021/09/08 01:54:15;;;;;;;;;;;23.80;46.80;;;;;;1567825;74;811;-73
2021/09/08 01:56:17;;;;;;;;;;;23.70;46.80;;;;;;1568934;74;768;-68
2021/09/08 01:58:19;;;;;;;;;;;23.70;46.80;;;;;;1564908;74;1112;-69
2021/09/08 02:00:20;;;;;;;;;;;23.70;46.80;;;;;;1566274;74;762;-73
2021/09/08 02:02:22;;;;;;;;;;;23.80;46.70;;;;;;1564052;75;1928;-68
2021/09/08 02:04:24;;;;;;;;;;;23.70;46.80;;;;;;1566209;75;746;-68
2021/09/08 02:06:28;;;;;;;;;;;23.70;46.80;;;;;;1562036;74;712;-67
2021/09/08 02:08:30;;;;;;;;;;;23.70;46.80;;;;;;1565428;74;1184;-68
2021/09/08 02:10:32;;;;;;;;;;;23.70;46.80;;;;;;1566256;74;727;-67
2021/09/08 02:12:34;;;;;;;;;;;23.70;46.80;;;;;;1568821;74;720;-65
2021/09/08 02:14:36;;;;;;;;;;;23.70;46.70;;;;;;1568026;74;647;-65
2021/09/08 02:16:38;;;;;;;;;;;23.70;46.70;;;;;;1564366;74;1150;-69
2021/09/08 02:18:39;;;;;;;;;;;23.70;46.70;;;;;;1566948;74;745;-67
2021/09/08 02:20:41;;;;;;;;;;;23.70;46.80;;;;;;1567694;75;804;-67
2021/09/08 02:22:43;;;;;;;;;;;23.80;46.80;;;;;;1566808;75;1950;-69
2021/09/08 02:24:45;;;;;;;;;;;23.70;46.80;;;;;;1568794;75;836;-67
2021/09/08 02:26:47;;;;;;;;;;;23.80;46.80;;;;;;1567367;74;1124;-68
2021/09/08 02:28:49;;;;;;;;;;;23.70;46.70;;;;;;1565118;74;728;-67
2021/09/08 02:30:51;;;;;;;;;;;23.70;46.80;;;;;;1568303;76;671;-66
2021/09/08 02:32:53;;;;;;;;;;;23.70;46.70;;;;;;1569573;75;773;-67
2021/09/08 02:34:54;;;;;;;;;;;23.70;46.80;;;;;;1569701;74;708;-68
2021/09/08 02:36:56;;;;;;;;;;;23.70;46.70;;;;;;1568375;74;1078;-66
2021/09/08 02:39:00;;;;;;;;;;;23.70;46.60;;;;;;1568286;74;812;-65
2021/09/08 02:41:06;;;;;;;;;;;23.70;46.50;;;;;;1568753;75;1904;-65
2021/09/08 02:43:05;;;;;;;;;;;23.60;46.50;;;;;;1567525;74;1618;-66
2021/09/08 02:45:07;;;;;;;;;;;23.70;46.50;;;;;;1568172;74;726;-68
2021/09/08 02:47:09;;;;;;;;;;;23.70;46.50;;;;;;1561298;75;1136;-68
2021/09/08 02:49:11;;;;;;;;;;;23.70;46.50;;;;;;1565103;74;737;-67
2021/09/08 02:51:13;;;;;;;;;;;23.70;46.50;;;;;;1563743;74;827;-65
2021/09/08 02:53:15;;;;;;;;;;;23.70;46.50;;;;;;1569190;74;799;-68
2021/09/08 02:55:17;;;;;;;;;;;23.70;46.50;;;;;;1565345;76;761;-69
2021/09/08 02:57:18;;;;;;;;;;;23.70;46.50;;;;;;1564157;74;1137;-69
2021/09/08 02:59:20;;;;;;;;;;;23.70;46.70;;;;;;1560254;74;742;-70
2021/09/08 03:01:22;;;;;;;;;;;23.70;46.70;;;;;;1557549;74;1953;-71
2021/09/08 03:03:24;;;;;;;;;;;23.60;46.60;;;;;;1551155;74;743;-67
2021/09/08 03:05:26;;;;;;;;;;;23.70;46.70;;;;;;1553415;74;765;-68
2021/09/08 03:07:28;;;;;;;;;;;23.60;46.60;;;;;;1554243;74;1147;-68
2021/09/08 03:09:30;;;;;;;;;;;23.70;46.80;;;;;;1556012;74;779;-73
2021/09/08 03:11:32;;;;;;;;;;;23.60;46.80;;;;;;1553350;74;730;-69
2021/09/08 03:13:33;;;;;;;;;;;23.60;46.80;;;;;;1561373;74;763;-68
2021/09/08 03:15:37;;;;;;;;;;;23.70;47.00;;;;;;1557143;74;790;-71
2021/09/08 03:17:39;;;;;;;;;;;23.70;47.00;;;;;;1560356;74;1137;-69
2021/09/08 03:19:41;;;;;;;;;;;23.70;47.10;;;;;;1561465;76;740;-66
2021/09/08 03:21:43;;;;;;;;;;;23.70;47.10;;;;;;1561279;74;1947;-69
2021/09/08 03:23:44;;;;;;;;;;;23.70;47.10;;;;;;1552887;76;760;-71
2021/09/08 03:25:46;;;;;;;;;;;23.70;47.10;;;;;;1553372;76;720;-68
2021/09/08 03:27:48;;;;;;;;;;;23.70;47.20;;;;;;1567481;74;1148;-68
2021/09/08 03:29:51;;;;;;;;;;;23.70;47.20;;;;;;1556193;74;778;-71
2021/09/08 03:31:52;;;;;;;;;;;23.70;47.30;;;;;;1564704;74;731;-72
2021/09/08 03:33:54;;;;;;;;;;;23.60;47.10;;;;;;1569938;74;701;-68
2021/09/08 03:35:56;;;;;;;;;;;23.70;47.30;;;;;;1565927;74;729;-69
2021/09/08 03:37:58;;;;;;;;;;;23.70;47.40;;;;;;1568206;74;1112;-68
2021/09/08 03:40:00;;;;;;;;;;;23.70;47.40;;;;;;1566738;74;907;-68
2021/09/08 03:42:02;;;;;;;;;;;23.70;47.40;;;;;;1560920;74;1926;-67
2021/09/08 03:44:04;;;;;;;;;;;23.70;47.50;;;;;;1568919;74;624;-65
2021/09/08 03:46:07;;;;;;;;;;;23.70;47.50;;;;;;1567426;74;893;-65
2021/09/08 03:48:09;;;;;;;;;;;23.70;47.60;;;;;;1557504;74;1132;-68
2021/09/08 03:50:12;;;;;;;;;;;23.70;47.60;;;;;;1563564;74;796;-66
2021/09/08 03:52:14;;;;;;;;;;;23.60;47.50;;;;;;1552705;74;856;-68
2021/09/08 03:54:16;;;;;;;;;;;23.70;47.60;;;;;;1564704;74;798;-66
2021/09/08 03:56:18;;;;;;;;;;;23.60;47.50;;;;;;1549967;74;715;-70
2021/09/08 03:58:19;;;;;;;;;;;23.60;47.60;;;;;;1570987;74;1078;-67
2021/09/08 04:00:21;;;;;;;;;;;23.60;47.60;;;;;;1563677;74;771;-67
2021/09/08 04:02:23;;;;;;;;;;;23.60;47.70;;;;;;1551363;74;1937;-67
2021/09/08 04:04:25;;;;;;;;;;;23.60;47.60;;;;;;1561703;74;781;-67
2021/09/08 04:06:27;;;;;;;;;;;23.70;47.80;;;;;;1561098;74;759;-68
2021/09/08 04:08:29;;;;;;;;;;;23.60;47.70;;;;;;1566247;74;1213;-68
2021/09/08 04:10:31;;;;;;;;;;;23.60;47.80;;;;;;1560748;75;752;-71
2021/09/08 04:12:33;;;;;;;;;;;23.60;47.80;;;;;;1553072;74;643;-70
2021/09/08 04:14:34;;;;;;;;;;;23.70;47.90;;;;;;1570365;74;816;-70
2021/09/08 04:16:36;;;;;;;;;;;23.60;47.80;;;;;;1557070;74;1175;-67
2021/09/08 04:18:38;;;;;;;;;;;23.60;47.90;;;;;;1562728;74;774;-67
2021/09/08 04:20:40;;;;;;;;;;;23.70;48.10;;;;;;1559608;74;808;-67
2021/09/08 04:22:42;;;;;;;;;;;23.70;48.10;;;;;;1560424;74;1923;-67
2021/09/08 04:24:44;;;;;;;;;;;23.70;48.10;;;;;;1568828;74;827;-71
2021/09/08 04:26:46;;;;;;;;;;;23.60;48.00;;;;;;1565222;74;1148;-68
2021/09/08 04:28:48;;;;;;;;;;;23.70;48.10;;;;;;1555963;74;761;-70
2021/09/08 04:30:50;;;;;;;;;;;23.60;48.00;;;;;;1569822;74;751;-70
2021/09/08 04:32:52;;;;;;;;;;;23.60;48.00;;;;;;1565922;74;706;-71
2021/09/08 04:34:53;;;;;;;;;;;23.70;48.10;;;;;;1557399;74;802;-68
2021/09/08 04:36:55;;;;;;;;;;;23.60;48.10;;;;;;1559888;74;1200;-68
2021/09/08 04:38:57;;;;;;;;;;;23.60;48.10;;;;;;1565362;76;804;-68
2021/09/08 04:40:59;;;;;;;;;;;23.70;48.30;;;;;;1557072;74;773;-68
2021/09/08 04:43:02;;;;;;;;;;;23.60;48.20;;;;;;1556768;74;1948;-69
2021/09/08 04:45:04;;;;;;;;;;;23.60;48.20;;;;;;1544459;74;683;-66
2021/09/08 04:47:06;;;;;;;;;;;23.70;48.30;;;;;;1552149;74;1148;-68
2021/09/08 04:49:08;;;;;;;;;;;23.70;48.30;;;;;;1560353;74;716;-70
2021/09/08 04:51:10;;;;;;;;;;;23.60;48.20;;;;;;1547231;76;711;-70
2021/09/08 04:53:12;;;;;;;;;;;23.60;48.20;;;;;;1557302;74;718;-71
2021/09/08 04:55:14;;;;;;;;;;;23.60;48.20;;;;;;1552699;74;819;-70
2021/09/08 04:57:16;;;;;;;;;;;23.60;48.30;;;;;;1561965;74;1132;-71
2021/09/08 04:59:18;;;;;;;;;;;23.60;48.30;;;;;;1565848;74;686;-71
2021/09/08 05:01:19;;;;;;;;;;;23.60;48.40;;;;;;1560411;75;692;-73
2021/09/08 05:03:21;;;;;;;;;;;23.70;48.50;;;;;;1563671;74;1970;-70
2021/09/08 05:05:23;;;;;;;;;;;23.60;48.40;;;;;;1545143;74;736;-70
2021/09/08 05:07:25;;;;;;;;;;;23.60;48.40;;;;;;1564076;74;1176;-69
2021/09/08 05:09:27;;;;;;;;;;;23.60;48.40;;;;;;1560894;74;939;-68
2021/09/08 05:11:29;;;;;;;;;;;23.60;48.40;;;;;;1556069;74;705;-69
2021/09/08 05:13:31;;;;;;;;;;;23.60;48.40;;;;;;1557182;76;744;-71
2021/09/08 05:15:33;;;;;;;;;;;23.60;48.40;;;;;;1549317;74;762;-72
2021/09/08 05:17:34;;;;;;;;;;;23.60;48.40;;;;;;1564046;74;1155;-75
2021/09/08 05:19:36;;;;;;;;;;;23.60;48.50;;;;;;1557342;74;755;-69
2021/09/08 05:21:38;;;;;;;;;;;23.60;48.60;;;;;;1565110;74;750;-69
2021/09/08 05:23:40;;;;;;;;;;;23.60;48.70;;;;;;1555801;74;1941;-68
2021/09/08 05:25:42;;;;;;;;;;;23.70;48.90;;;;;;1559233;74;693;-69
2021/09/08 05:27:44;;;;;;;;;;;23.70;49.00;;;;;;1559037;74;1141;-69
2021/09/08 05:29:46;;;;;;;;;;;23.60;48.60;;;;;;1552986;74;727;-70
2021/09/08 05:31:48;;;;;;;;;;;23.70;48.10;;;;;;1557020;74;709;-69
2021/09/08 05:33:50;;;;;;;;;;;23.60;47.80;;;;;;1561078;74;820;-70
2021/09/08 05:35:52;;;;;;;;;;;23.70;48.10;;;;;;1559551;74;746;-71
2021/09/08 05:37:53;;;;;;;;;;;23.60;47.80;;;;;;1556934;76;1123;-69
2021/09/08 05:39:55;;;;;;;;;;;23.60;47.80;;;;;;1567991;74;723;-70
2021/09/08 05:41:57;;;;;;;;;;;23.60;47.80;;;;;;1558532;74;665;-70
2021/09/08 05:43:59;;;;;;;;;;;23.60;47.80;;;;;;1561567;75;1920;-71
2021/09/08 05:46:01;;;;;;;;;;;23.60;47.70;;;;;;1553667;76;804;-71
2021/09/08 05:48:03;;;;;;;;;;;23.60;47.80;;;;;;1565657;74;1162;-71
2021/09/08 05:50:05;;;;;;;;;;;23.60;47.80;;;;;;1557079;74;783;-68
2021/09/08 05:52:07;;;;;;;;;;;23.60;47.80;;;;;;1557219;74;742;-69
2021/09/08 05:54:09;;;;;;;;;;;23.50;47.80;;;;;;1558454;75;1123;-70
2021/09/08 05:56:11;;;;;;;;;;;23.60;47.70;;;;;;1561154;74;732;-70
2021/09/08 05:58:13;;;;;;;;;;;23.50;47.80;;;;;;1555282;74;1126;-67
2021/09/08 06:00:15;;;;;;;;;;;23.50;47.70;;;;;;1559263;74;613;-70
2021/09/08 06:02:17;;;;;;;;;;;23.50;47.70;;;;;;1566184;75;1934;-69
2021/09/08 06:04:19;;;;;;;;;;;23.50;47.60;;;;;;1557149;74;806;-69
2021/09/08 06:06:20;;;;;;;;;;;23.50;47.60;;;;;;1564651;74;775;-70
2021/09/08 06:08:22;;;;;;;;;;;23.50;47.60;;;;;;1567623;75;1168;-71
2021/09/08 06:10:24;;;;;;;;;;;23.50;47.60;;;;;;1554511;75;816;-68
2021/09/08 06:12:26;;;;;;;;;;;23.50;47.60;;;;;;1556897;74;777;-69
2021/09/08 06:14:29;;;;;;;;;;;23.50;47.60;;;;;;1544682;74;742;-71
2021/09/08 06:16:31;;;;;;;;;;;23.50;47.50;;;;;;1557774;74;776;-68
2021/09/08 06:18:33;;;;;;;;;;;23.40;47.40;;;;;;1557337;74;775;-67
2021/09/08 06:20:35;;;;;;;;;;;23.50;47.50;;;;;;1561300;74;927;-69
2021/09/08 06:22:37;;;;;;;;;;;23.50;47.40;;;;;;1555126;76;1951;-70
2021/09/08 06:24:39;;;;;;;;;;;23.50;47.40;;;;;;1562735;74;740;-69
2021/09/08 06:26:41;;;;;;;;;;;23.50;47.40;;;;;;1556659;74;1122;-67
2021/09/08 06:28:43;;;;;;;;;;;23.50;47.40;;;;;;1558330;74;850;-69
2021/09/08 06:30:45;;;;;;;;;;;23.50;47.30;;;;;;1557669;74;840;-71
2021/09/08 06:32:47;;;;;;;;;;;23.50;47.30;;;;;;1555918;74;708;-71
2021/09/08 06:34:49;;;;;;;;;;;23.50;47.30;;;;;;1564377;74;812;-71
2021/09/08 06:36:53;;;;;;;;;;;23.40;47.20;;;;;;1563187;74;1217;-72
2021/09/08 06:38:54;;;;;;;;;;;23.40;47.30;;;;;;1563809;75;1343;-72
2021/09/08 06:40:58;;;;;;;;;;;23.40;47.30;;;;;;1558526;74;711;-71
2021/09/08 06:43:00;;;;;;;;;;;23.40;47.50;;;;;;1566056;75;1938;-73
2021/09/08 06:45:02;;;;;;;;;;;23.40;47.50;;;;;;1563779;74;679;-71
2021/09/08 06:47:04;;;;;;;;;;;23.40;47.60;;;;;;1564781;75;1158;-73
2021/09/08 06:49:05;;;;;;;;;;;23.40;47.60;;;;;;1552548;74;728;-72
2021/09/08 06:51:07;;;;;;;;;;;23.40;47.60;;;;;;1558025;75;733;-71
2021/09/08 06:53:09;;;;;;;;;;;23.30;47.70;;;;;;1557231;74;805;-71
2021/09/08 06:55:11;;;;;;;;;;;23.40;47.70;;;;;;1552630;74;710;-72
2021/09/08 06:57:13;;;;;;;;;;;23.30;47.70;;;;;;1566541;74;1116;-72
2021/09/08 06:59:15;;;;;;;;;;;23.30;47.70;;;;;;1551894;74;921;-70
2021/09/08 07:01:17;;;;;;;;;;;23.30;47.70;;;;;;1562214;74;679;-69
2021/09/08 07:03:19;;;;;;;;;;;23.30;47.70;;;;;;1553762;75;1917;-72
2021/09/08 07:05:21;;;;;;;;;;;23.30;47.80;;;;;;1548413;74;769;-72
2021/09/08 07:07:23;;;;;;;;;;;23.30;47.80;;;;;;1563764;70;2555;-67
2021/09/08 07:09:25;;;;;;;;;;;23.40;47.80;;;;;;1571218;74;693;-66
2021/09/08 07:11:27;;;;;;;;;;;23.30;47.80;;;;;;1559184;74;708;-69
2021/09/08 07:13:29;;;;;;;;;;;23.30;47.80;;;;;;1570039;74;743;-67
2021/09/08 07:15:31;;;;;;;;;;;23.30;47.80;;;;;;1563529;74;691;-67
2021/09/08 07:17:32;;;;;;;;;;;23.30;47.80;;;;;;1566241;74;1207;-66
2021/09/08 07:19:35;;;;;;;;;;;23.40;47.90;;;;;;1540106;76;695;-67
2021/09/08 07:21:36;;;;;;;;;;;23.40;47.90;;;;;;1544283;76;678;-63
2021/09/08 07:23:38;;;;;;;;;;;23.40;47.90;;;;;;1552064;76;1930;-67
2021/09/08 07:25:40;;;;;;;;;;;23.30;47.90;;;;;;1546257;76;729;-66
2021/09/08 07:27:42;;;;;;;;;;;23.30;47.90;;;;;;1544919;76;1153;-66
2021/09/08 07:29:44;;;;;;;;;;;23.30;48.00;;;;;;1546116;76;692;-67
2021/09/08 07:31:46;;;;;;;;;;;23.40;48.20;;;;;;1548635;76;711;-66
2021/09/08 07:33:48;;;;;;;;;;;23.50;48.70;;;;;;1543454;76;720;-67
2021/09/08 07:35:49;;;;;;;;;;;23.60;48.90;;;;;;1540264;76;704;-69
2021/09/08 07:37:51;;;;;;;;;;;23.70;49.00;;;;;;1534232;76;1142;-68
2021/09/08 07:39:53;;;;;;;;;;;23.70;49.10;;;;;;1538941;76;716;-67
2021/09/08 07:41:55;;;;;;;;;;;23.80;49.10;;;;;;1541763;76;727;-67
2021/09/08 07:43:58;;;;;;;;;;;23.90;49.30;;;;;;1543785;76;1930;-67
2021/09/08 07:46:00;;;;;;;;;;;23.90;49.50;;;;;;1540903;76;695;-68
2021/09/08 07:48:02;;;;;;;;;;;23.90;49.50;;;;;;1541655;75;1108;-67
2021/09/08 07:50:04;;;;;;;;;;;24.00;49.50;;;;;;1539545;76;801;-64
2021/09/08 07:52:06;;;;;;;;;;;24.00;49.70;;;;;;1544211;76;780;-66
2021/09/08 07:54:07;;;;;;;;;;;24.20;49.50;;;;;;1544846;76;729;-66
2021/09/08 07:56:10;;;;;;;;;;;24.30;49.20;;;;;;1538842;76;790;-66
2021/09/08 07:58:11;;;;;;;;;;;24.40;49.00;;;;;;1544387;76;1130;-67
2021/09/08 08:00:14;;;;;;;;;;;24.40;48.80;;;;;;1545227;76;796;-68
2021/09/08 08:02:16;;;;;;;;;;;24.40;48.60;;;;;;1534597;76;722;-65
2021/09/08 08:04:18;;;;;;;;;;;24.50;48.20;;;;;;1542723;76;1940;-63
2021/09/08 08:06:20;;;;;;;;;;;24.50;48.10;;;;;;1544571;76;728;-66
2021/09/08 08:08:22;;;;;;;;;;;24.50;48.10;;;;;;1543104;76;1124;-67
2021/09/08 08:10:24;;;;;;;;;;;24.50;48.10;;;;;;1542991;76;795;-67
2021/09/08 08:12:29;;;;;;;;;;;24.50;47.90;;;;;;1544461;76;719;-66
2021/09/08 08:14:30;;;;;;;;;;;24.50;47.80;;;;;;1546594;76;1619;-67
2021/09/08 08:16:32;;;;;;;;;;;24.50;47.80;;;;;;1541291;76;773;-66
2021/09/08 08:18:34;;;;;;;;;;;24.50;47.70;;;;;;1544724;76;1159;-67
2021/09/08 08:20:36;;;;;;;;;;;24.50;47.60;;;;;;1544312;76;716;-67
2021/09/08 08:22:38;;;;;;;;;;;24.50;47.60;;;;;;1539446;76;748;-65
2021/09/08 08:24:40;;;;;;;;;;;24.50;47.50;;;;;;1540040;76;1937;-66
2021/09/08 08:26:42;;;;;;;;;;;24.60;47.40;;;;;;1541498;76;720;-65
2021/09/08 08:28:44;;;;;;;;;;;24.60;47.30;;;;;;1534873;76;1090;-66
2021/09/08 08:30:46;;;;;;;;;;;24.70;47.40;;;;;;1548078;76;775;-66
2021/09/08 08:32:48;;;;;;;;;;;24.60;47.10;;;;;;1543456;76;712;-69
2021/09/08 08:34:50;;;;;;;;;;;24.70;47.20;;;;;;1541978;76;673;-67
2021/09/08 08:36:52;;;;;;;;;;;24.70;47.30;;;;;;1538887;76;1202;-69
2021/09/08 08:38:54;;;;;;;;;;;24.70;47.10;;;;;;1544568;76;1056;-67
2021/09/08 08:40:56;;;;;;;;;;;24.70;46.80;;;;;;1544638;76;657;-68
2021/09/08 08:42:58;;;;;;;;;;;24.70;46.60;;;;;;1546222;76;712;-66
2021/09/08 08:45:00;;;;;;;;;;;24.70;46.00;;;;;;1541249;76;1939;-68
2021/09/08 08:47:02;;;;;;;;;;;24.80;46.00;;;;;;1544195;76;1140;-67
2021/09/08 08:49:04;;;;;;;;;;;24.70;46.20;;;;;;1541123;76;767;-66
2021/09/08 08:51:06;;;;;;;;;;;24.80;46.20;;;;;;1535272;76;742;-68
2021/09/08 08:53:08;;;;;;;;;;;24.80;45.90;;;;;;1546386;76;711;-67
2021/09/08 08:55:10;;;;;;;;;;;24.80;46.00;;;;;;1541852;76;764;-67
2021/09/08 08:57:12;;;;;;;;;;;24.70;46.00;;;;;;1545827;76;1113;-67
2021/09/08 08:59:14;;;;;;;;;;;24.80;46.10;;;;;;1543235;76;736;-68
2021/09/08 09:01:25;;;;;;;;;;;24.80;46.10;;;;;;1539423;76;782;-67
2021/09/08 09:03:27;;;;;;;;;;;24.80;46.00;;;;;;1532391;76;1944;-68
2021/09/08 09:05:39;;;;;;;;;;;24.80;46.10;;;;;;1539741;76;682;-67
2021/09/08 09:07:44;;;;;;;;;;;24.80;46.10;;;;;;1539905;76;1143;-68
2021/09/08 09:09:50;;;;;;;;;;;24.80;46.00;;;;;;1543443;76;801;-68
2021/09/08 09:11:50;;;;;;;;;;;24.80;46.10;;;;;;1542758;76;1616;-68
2021/09/08 09:13:51;;;;;;;;;;;24.80;45.90;;;;;;1539364;76;757;-68
2021/09/08 09:15:55;;;;;;;;;;;24.80;45.60;;;;;;1539156;76;809;-65
2021/09/08 09:17:57;;;;;;;;;;;24.80;45.80;;;;;;1542685;76;1174;-67
2021/09/08 09:20:00;;;;;;;;;;;24.80;45.70;;;;;;1542146;76;713;-67
2021/09/08 09:22:02;;;;;;;;;;;24.80;45.80;;;;;;1545279;76;793;-67
2021/09/08 09:24:05;;;;;;;;;;;24.80;45.70;;;;;;1549296;76;1920;-68
2021/09/08 09:26:07;;;;;;;;;;;24.90;45.90;;;;;;1547102;76;624;-67
2021/09/08 09:28:09;;;;;;;;;;;24.90;45.70;;;;;;1544005;75;1275;-66
2021/09/08 09:30:11;;;;;;;;;;;24.90;45.50;;;;;;1542560;76;702;-68
2021/09/08 09:32:13;;;;;;;;;;;24.80;45.60;;;;;;1552344;76;679;-68
2021/09/08 09:34:15;;;;;;;;;;;24.80;45.50;;;;;;1548681;76;732;-68
2021/09/08 09:36:18;;;;;;;;;;;24.80;45.70;;;;;;1547827;76;1066;-68
2021/09/08 09:38:20;;;;;;;;;;;24.70;45.70;;;;;;1544261;76;1144;-66
2021/09/08 09:40:24;;;;;;;;;;;24.80;45.70;;;;;;1547254;76;728;-67
2021/09/08 09:42:31;;;;;;;;;;;24.80;45.80;;;;;;1537936;76;1888;-67
2021/09/08 09:44:32;;;;;;;;;;;24.70;45.80;;;;;;1544088;76;1915;-67
2021/09/08 09:46:34;;;;;;;;;;;24.80;45.70;;;;;;1549242;76;675;-68
2021/09/08 09:48:37;;;;;;;;;;;24.80;45.70;;;;;;1548613;76;1122;-68
2021/09/08 09:50:46;;;;;;;;;;;24.80;45.80;;;;;;1543475;76;781;-67
2021/09/08 09:52:42;;;;;;;;;;;24.70;45.70;;;;;;1547591;76;1502;-68
2021/09/08 09:54:44;;;;;;;;;;;24.70;45.70;;;;;;1514279;77;1202;-68
2021/09/08 09:56:46;;;;;;;;;;;24.80;45.70;;;;;;1547333;76;716;-68
2021/09/08 09:58:48;;;;;;;;;;;24.80;45.70;;;;;;1547690;76;1082;-67
2021/09/08 10:00:50;;;;;;;;;;;24.70;45.70;;;;;;1546602;76;770;-66
2021/09/08 10:02:52;;;;;;;;;;;24.80;45.80;;;;;;1544311;76;736;-68
2021/09/08 10:04:54;;;;;;;;;;;24.60;45.80;;;;;;1541050;76;1919;-67
2021/09/08 10:06:56;;;;;;;;;;;24.60;45.70;;;;;;1549484;75;1136;-69
2021/09/08 10:08:58;;;;;;;;;;;24.50;46.00;;;;;;1545777;76;821;-67
2021/09/08 10:11:02;;;;;;;;;;;24.50;46.10;;;;;;1541984;76;758;-67
2021/09/08 10:13:08;;;;;;;;;;;24.40;46.20;;;;;;1538089;76;637;-69
2021/09/08 10:15:10;;;;;;;;;;;24.50;46.30;;;;;;1539818;76;1047;-65
2021/09/08 10:17:12;;;;;;;;;;;24.60;46.20;;;;;;1547309;75;1161;-69
2021/09/08 10:19:25;;;;;;;;;;;24.50;46.30;;;;;;1525397;76;747;-72
2021/09/08 10:21:27;;;;;;;;;;;24.50;46.40;;;;;;1541500;76;919;-70
2021/09/08 10:23:28;;;;;;;;;;;24.50;46.30;;;;;;1548872;76;690;-69
2021/09/08 10:25:30;;;;;;;;;;;24.60;46.30;;;;;;1509923;77;1925;-70
2021/09/08 10:27:32;;;;;;;;;;;24.50;46.20;;;;;;1538606;76;1243;-69
2021/09/08 10:29:34;;;;;;;;;;;24.50;46.20;;;;;;1537442;76;664;-69
2021/09/08 10:31:38;;;;;;;;;;;24.40;46.30;;;;;;1509286;77;1362;-67
2021/09/08 10:33:40;;;;;;;;;;;24.50;46.50;;;;;;1529887;76;1499;-69
2021/09/08 10:35:42;;;;;;;;;;;24.50;46.50;;;;;;1529800;76;787;-71
2021/09/08 10:37:45;;;;;;;;;;;24.50;46.40;;;;;;1533259;76;1106;-71
2021/09/08 10:39:47;;;;;;;;;;;24.50;46.30;;;;;;1530909;76;716;-69
2021/09/08 10:41:50;;;;;;;;;;;24.50;46.30;;;;;;1534675;76;798;-70
2021/09/08 10:43:53;;;;;;;;;;;24.50;46.20;;;;;;1534299;76;698;-70
2021/09/08 10:45:55;;;;;;;;;;;24.40;46.30;;;;;;1537902;76;1092;-69
2021/09/08 10:47:58;;;;;;;;;;;24.50;46.40;;;;;;1529650;76;1161;-70
2021/09/08 10:50:00;;;;;;;;;;;24.50;46.30;;;;;;1534887;76;731;-70
2021/09/08 10:52:01;;;;;;;;;;;24.50;46.20;;;;;;1532815;76;698;-70
2021/09/08 10:54:05;;;;;;;;;;;24.50;46.40;;;;;;1541562;76;732;-70
2021/09/08 10:56:07;;;;;;;;;;;24.50;46.60;;;;;;1540363;76;777;-68
2021/09/08 10:58:09;;;;;;;;;;;24.50;46.70;;;;;;1539103;76;1132;-68
2021/09/08 11:00:12;;;;;;;;;;;24.40;46.70;;;;;;1528704;76;752;-66
2021/09/08 11:02:14;;;;;;;;;;;24.50;46.70;;;;;;1536150;76;744;-70
2021/09/08 11:04:16;;;;;;;;;;;24.50;46.80;;;;;;1530658;76;1932;-68
2021/09/08 11:06:18;;;;;;;;;;;24.40;46.70;;;;;;1535096;76;829;-69
2021/09/08 11:08:21;;;;;;;;;;;24.40;47.00;;;;;;1527980;76;1127;-68
2021/09/08 11:10:27;;;;;;;;;;;24.50;47.00;;;;;;1531632;76;779;-69
2021/09/08 11:12:46;;;;;;;;;;;24.40;46.80;;;;;;1537617;76;1012;-70
2021/09/08 11:14:48;;;;;;;;;;;24.40;46.90;;;;;;1536214;76;727;-68
2021/09/08 11:16:50;;;;;;;;;;;24.40;47.20;;;;;;1529105;76;737;-69
2021/09/08 11:18:52;;;;;;;;;;;24.40;46.80;;;;;;1526122;76;1198;-70
2021/09/08 11:20:56;;;;;;;;;;;24.50;46.90;;;;;;1531968;76;782;-68
2021/09/08 11:23:05;;;;;;;;;;;24.50;47.10;;;;;;1531610;76;1087;-70
2021/09/08 11:25:11;;;;;;;;;;;24.40;47.00;;;;;;1531660;76;1933;-68
2021/09/08 11:27:12;;;;;;;;;;;24.40;47.00;;;;;;1536171;76;1154;-71
2021/09/08 11:29:14;;;;;;;;;;;24.40;46.90;;;;;;1529894;76;745;-69
2021/09/08 11:31:19;;;;;;;;;;;24.30;46.90;;;;;;1526893;76;726;-70
2021/09/08 11:33:21;;;;;;;;;;;24.50;47.10;;;;;;1534542;76;768;-69
2021/09/08 11:35:37;;;;;;;;;;;24.40;47.00;;;;;;1527050;76;771;-70
2021/09/08 11:37:38;;;;;;;;;;;24.40;47.10;;;;;;1532699;76;1173;-70
2021/09/08 11:39:40;;;;;;;;;;;24.40;47.10;;;;;;1514810;77;1211;-72
2021/09/08 11:41:53;;;;;;;;;;;24.40;47.10;;;;;;1527773;76;725;-70
2021/09/08 11:43:57;;;;;;;;;;;24.30;47.00;;;;;;1546384;76;1577;-69
2021/09/08 11:46:15;;;;;;;;;;;24.30;47.20;;;;;;1537711;76;1907;-69
2021/09/08 11:48:17;;;;;;;;;;;24.20;47.10;;;;;;1530814;76;1067;-70
2021/09/08 11:50:19;;;;;;;;;;;24.30;47.30;;;;;;1525883;76;773;-72
2021/09/08 11:52:21;;;;;;;;;;;24.30;47.30;;;;;;1528511;76;749;-70
2021/09/08 11:54:23;;;;;;;;;;;24.30;47.40;;;;;;1500858;77;822;-71
2021/09/08 11:56:25;;;;;;;;;;;24.30;47.80;;;;;;1526898;76;721;-71
2021/09/08 11:58:27;;;;;;;;;;;24.30;47.60;;;;;;1532279;76;1187;-70
2021/09/08 12:00:29;;;;;;;;;;;24.30;48.00;;;;;;1535620;76;725;-71
2021/09/08 12:02:31;;;;;;;;;;;24.30;47.90;;;;;;1535229;76;760;-70
2021/09/08 12:04:33;;;;;;;;;;;24.30;47.80;;;;;;1529222;76;1940;-72
2021/09/08 12:06:35;;;;;;;;;;;24.30;48.00;;;;;;1534861;76;715;-71
2021/09/08 12:08:37;;;;;;;;;;;24.30;48.20;;;;;;1542234;75;1090;-71